sensor_id;sensor_type;location;lat;lon;timestamp;temperature;humidity
9723;DHT22;4900;49.306;8.500;2023-07-31T00:00:11;20.93;56.77
9723;DHT22;4900;49.306;8.500;2023-07-31T00:02:38;20.81;56.99
9723;DHT22;4900;49.306;8.500;2023-07-31T00:05:04;20.81;57.13
9723;DHT22;4900;49.306;8.500;2023-07-31T00:07:29;20.75;57.14
9723;DHT22;4900;49.306;8.500;2023-07-31T00:09:55;20.76;57.14
9723;DHT22;4900;49.306;8.500;2023-07-31T00:12:22;20.71;57.23
9723;DHT22;4900;49.306;8.500;2023-07-31T00:14:48;20.65;57.28
9723;DHT22;4900;49.306;8.500;2023-07-31T00:17:14;20.69;57.12
9723;DHT22;4900;49.306;8.500;2023-07-31T00:19:39;20.64;57.17
9723;DHT22;4900;49.306;8.500;2023-07-31T00:22:05;20.65;57.14
9723;DHT22;4900;49.306;8.500;2023-07-31T00:24:31;20.64;57.20
9723;DHT22;4900;49.306;8.500;2023-07-31T00:26:56;20.65;57.22
9723;DHT22;4900;49.306;8.500;2023-07-31T00:29:22;20.62;57.25
9723;DHT22;4900;49.306;8.500;2023-07-31T00:31:47;20.64;57.32
9723;DHT22;4900;49.306;8.500;2023-07-31T00:34:13;20.65;57.30
9723;DHT22;4900;49.306;8.500;2023-07-31T00:36:38;20.61;57.28
9723;DHT22;4900;49.306;8.500;2023-07-31T00:39:04;20.61;57.37
9723;DHT22;4900;49.306;8.500;2023-07-31T00:41:33;20.64;57.24
9723;DHT22;4900;49.306;8.500;2023-07-31T00:43:58;20.61;57.25
9723;DHT22;4900;49.306;8.500;2023-07-31T00:46:24;20.62;57.21
9723;DHT22;4900;49.306;8.500;2023-07-31T00:48:49;20.65;57.13
9723;DHT22;4900;49.306;8.500;2023-07-31T00:51:15;20.62;57.14
9723;DHT22;4900;49.306;8.500;2023-07-31T00:53:41;20.59;57.08
9723;DHT22;4900;49.306;8.500;2023-07-31T00:56:08;20.54;57.23
9723;DHT22;4900;49.306;8.500;2023-07-31T00:58:33;20.55;57.22
9723;DHT22;4900;49.306;8.500;2023-07-31T01:00:59;20.51;57.28
9723;DHT22;4900;49.306;8.500;2023-07-31T01:03:25;20.45;57.27
9723;DHT22;4900;49.306;8.500;2023-07-31T01:06:09;20.45;57.41
9723;DHT22;4900;49.306;8.500;2023-07-31T01:11:43;20.37;57.80
9723;DHT22;4900;49.306;8.500;2023-07-31T01:14:11;20.40;57.73
9723;DHT22;4900;49.306;8.500;2023-07-31T01:16:37;20.34;57.85
9723;DHT22;4900;49.306;8.500;2023-07-31T01:19:03;20.30;57.95
9723;DHT22;4900;49.306;8.500;2023-07-31T01:21:41;20.33;57.78
9723;DHT22;4900;49.306;8.500;2023-07-31T01:26:38;20.30;57.81
9723;DHT22;4900;49.306;8.500;2023-07-31T01:29:13;20.30;57.67
9723;DHT22;4900;49.306;8.500;2023-07-31T01:31:41;20.33;57.63
9723;DHT22;4900;49.306;8.500;2023-07-31T01:34:11;20.30;57.76
9723;DHT22;4900;49.306;8.500;2023-07-31T01:36:38;20.29;57.84
9723;DHT22;4900;49.306;8.500;2023-07-31T01:39:03;20.29;57.73
9723;DHT22;4900;49.306;8.500;2023-07-31T01:41:29;20.26;57.65
9723;DHT22;4900;49.306;8.500;2023-07-31T01:43:55;20.24;57.85
9723;DHT22;4900;49.306;8.500;2023-07-31T01:46:20;20.24;57.83
9723;DHT22;4900;49.306;8.500;2023-07-31T01:48:46;20.21;58.05
9723;DHT22;4900;49.306;8.500;2023-07-31T01:51:11;20.24;57.99
9723;DHT22;4900;49.306;8.500;2023-07-31T01:53:37;20.23;58.07
9723;DHT22;4900;49.306;8.500;2023-07-31T01:56:03;20.23;58.04
9723;DHT22;4900;49.306;8.500;2023-07-31T01:58:28;20.19;58.22
9723;DHT22;4900;49.306;8.500;2023-07-31T02:00:54;20.17;58.46
9723;DHT22;4900;49.306;8.500;2023-07-31T02:03:19;20.12;58.58
9723;DHT22;4900;49.306;8.500;2023-07-31T02:05:46;20.13;58.46
9723;DHT22;4900;49.306;8.500;2023-07-31T02:08:12;20.16;58.44
9723;DHT22;4900;49.306;8.500;2023-07-31T02:10:39;20.12;58.50
9723;DHT22;4900;49.306;8.500;2023-07-31T02:13:05;20.21;58.23
9723;DHT22;4900;49.306;8.500;2023-07-31T02:15:31;20.20;58.28
9723;DHT22;4900;49.306;8.500;2023-07-31T02:17:56;20.20;58.45
9723;DHT22;4900;49.306;8.500;2023-07-31T02:20:22;20.21;58.25
9723;DHT22;4900;49.306;8.500;2023-07-31T02:22:47;20.20;58.34
9723;DHT22;4900;49.306;8.500;2023-07-31T02:25:13;20.21;58.27
9723;DHT22;4900;49.306;8.500;2023-07-31T02:27:39;20.24;58.18
9723;DHT22;4900;49.306;8.500;2023-07-31T02:30:05;20.23;58.32
9723;DHT22;4900;49.306;8.500;2023-07-31T02:32:30;20.14;58.34
9723;DHT22;4900;49.306;8.500;2023-07-31T02:34:56;20.16;58.36
9723;DHT22;4900;49.306;8.500;2023-07-31T02:37:23;20.21;58.33
9723;DHT22;4900;49.306;8.500;2023-07-31T02:39:49;20.14;58.55
9723;DHT22;4900;49.306;8.500;2023-07-31T02:42:14;20.10;58.51
9723;DHT22;4900;49.306;8.500;2023-07-31T02:44:40;20.06;58.60
9723;DHT22;4900;49.306;8.500;2023-07-31T02:47:06;20.09;58.47
9723;DHT22;4900;49.306;8.500;2023-07-31T02:49:31;20.13;58.47
9723;DHT22;4900;49.306;8.500;2023-07-31T02:51:57;20.13;58.56
9723;DHT22;4900;49.306;8.500;2023-07-31T02:54:23;20.09;58.72
9723;DHT22;4900;49.306;8.500;2023-07-31T02:56:48;20.01;58.79
9723;DHT22;4900;49.306;8.500;2023-07-31T02:59:14;20.02;58.73
9723;DHT22;4900;49.306;8.500;2023-07-31T03:01:40;20.02;58.78
9723;DHT22;4900;49.306;8.500;2023-07-31T03:04:05;20.02;58.75
9723;DHT22;4900;49.306;8.500;2023-07-31T03:06:31;19.96;58.79
9723;DHT22;4900;49.306;8.500;2023-07-31T03:08:56;19.96;58.82
9723;DHT22;4900;49.306;8.500;2023-07-31T03:11:22;19.89;58.87
9723;DHT22;4900;49.306;8.500;2023-07-31T03:13:47;19.87;59.00
9723;DHT22;4900;49.306;8.500;2023-07-31T03:16:13;19.81;59.30
9723;DHT22;4900;49.306;8.500;2023-07-31T03:18:39;19.85;59.27
9723;DHT22;4900;49.306;8.500;2023-07-31T03:21:04;19.81;59.30
9723;DHT22;4900;49.306;8.500;2023-07-31T03:23:30;19.71;59.66
9723;DHT22;4900;49.306;8.500;2023-07-31T03:26:00;19.74;59.74
9723;DHT22;4900;49.306;8.500;2023-07-31T03:28:26;19.68;59.86
9723;DHT22;4900;49.306;8.500;2023-07-31T03:30:52;19.67;59.90
9723;DHT22;4900;49.306;8.500;2023-07-31T03:33:18;19.65;59.96
9723;DHT22;4900;49.306;8.500;2023-07-31T03:35:44;19.64;60.10
9723;DHT22;4900;49.306;8.500;2023-07-31T03:38:10;19.61;60.22
9723;DHT22;4900;49.306;8.500;2023-07-31T03:40:35;19.64;60.05
9723;DHT22;4900;49.306;8.500;2023-07-31T03:43:01;19.61;60.00
9723;DHT22;4900;49.306;8.500;2023-07-31T03:45:27;19.58;60.14
9723;DHT22;4900;49.306;8.500;2023-07-31T03:47:52;19.54;60.16
9723;DHT22;4900;49.306;8.500;2023-07-31T03:50:19;19.53;60.26
9723;DHT22;4900;49.306;8.500;2023-07-31T03:52:45;19.54;60.23
9723;DHT22;4900;49.306;8.500;2023-07-31T03:55:11;19.62;60.12
9723;DHT22;4900;49.306;8.500;2023-07-31T03:57:37;19.58;60.17
9723;DHT22;4900;49.306;8.500;2023-07-31T04:00:03;19.64;60.15
9723;DHT22;4900;49.306;8.500;2023-07-31T04:02:28;19.64;60.29
9723;DHT22;4900;49.306;8.500;2023-07-31T04:04:54;19.64;60.33
9723;DHT22;4900;49.306;8.500;2023-07-31T04:07:20;19.68;60.15
9723;DHT22;4900;49.306;8.500;2023-07-31T04:09:45;19.69;60.27
9723;DHT22;4900;49.306;8.500;2023-07-31T04:12:11;19.69;60.15
9723;DHT22;4900;49.306;8.500;2023-07-31T04:14:36;19.58;60.49
9723;DHT22;4900;49.306;8.500;2023-07-31T04:17:02;19.65;60.28
9723;DHT22;4900;49.306;8.500;2023-07-31T04:19:27;19.76;60.04
9723;DHT22;4900;49.306;8.500;2023-07-31T04:21:53;19.81;59.99
9723;DHT22;4900;49.306;8.500;2023-07-31T04:24:18;19.71;60.17
9723;DHT22;4900;49.306;8.500;2023-07-31T04:26:51;19.78;60.02
9723;DHT22;4900;49.306;8.500;2023-07-31T04:29:17;19.85;59.96
9723;DHT22;4900;49.306;8.500;2023-07-31T04:31:42;19.83;60.13
9723;DHT22;4900;49.306;8.500;2023-07-31T04:34:08;19.78;60.41
9723;DHT22;4900;49.306;8.500;2023-07-31T04:36:34;19.86;60.17
9723;DHT22;4900;49.306;8.500;2023-07-31T04:39:00;19.82;60.28
9723;DHT22;4900;49.306;8.500;2023-07-31T04:41:25;19.90;60.19
9723;DHT22;4900;49.306;8.500;2023-07-31T04:43:51;19.87;60.19
9723;DHT22;4900;49.306;8.500;2023-07-31T04:46:16;19.90;60.13
9723;DHT22;4900;49.306;8.500;2023-07-31T04:48:42;20.08;59.85
9723;DHT22;4900;49.306;8.500;2023-07-31T04:51:08;20.12;59.71
9723;DHT22;4900;49.306;8.500;2023-07-31T04:53:35;20.12;59.57
9723;DHT22;4900;49.306;8.500;2023-07-31T04:56:00;20.13;59.46
9723;DHT22;4900;49.306;8.500;2023-07-31T04:58:26;20.21;59.39
9723;DHT22;4900;49.306;8.500;2023-07-31T05:00:51;20.24;59.21
9723;DHT22;4900;49.306;8.500;2023-07-31T05:03:17;20.31;58.96
9723;DHT22;4900;49.306;8.500;2023-07-31T05:05:42;20.27;59.08
9723;DHT22;4900;49.306;8.500;2023-07-31T05:08:08;20.31;58.95
9723;DHT22;4900;49.306;8.500;2023-07-31T05:10:34;20.36;58.82
9723;DHT22;4900;49.306;8.500;2023-07-31T05:12:59;20.29;59.10
9723;DHT22;4900;49.306;8.500;2023-07-31T05:15:25;20.40;58.90
9723;DHT22;4900;49.306;8.500;2023-07-31T05:17:50;20.47;58.73
9723;DHT22;4900;49.306;8.500;2023-07-31T05:20:16;20.54;58.65
9723;DHT22;4900;49.306;8.500;2023-07-31T05:22:41;20.54;58.66
9723;DHT22;4900;49.306;8.500;2023-07-31T05:25:08;20.51;58.60
9723;DHT22;4900;49.306;8.500;2023-07-31T05:27:34;20.62;58.34
9723;DHT22;4900;49.306;8.500;2023-07-31T05:29:59;20.61;58.53
9723;DHT22;4900;49.306;8.500;2023-07-31T05:32:25;20.68;58.54
9723;DHT22;4900;49.306;8.500;2023-07-31T05:34:51;20.81;58.26
9723;DHT22;4900;49.306;8.500;2023-07-31T05:37:18;20.88;58.10
9723;DHT22;4900;49.306;8.500;2023-07-31T05:39:43;20.89;58.08
9723;DHT22;4900;49.306;8.500;2023-07-31T05:42:09;20.95;57.95
9723;DHT22;4900;49.306;8.500;2023-07-31T05:44:34;21.14;57.64
9723;DHT22;4900;49.306;8.500;2023-07-31T05:47:00;21.24;57.46
9723;DHT22;4900;49.306;8.500;2023-07-31T05:49:26;21.21;57.47
9723;DHT22;4900;49.306;8.500;2023-07-31T05:51:51;21.30;57.25
9723;DHT22;4900;49.306;8.500;2023-07-31T05:54:17;21.36;57.29
9723;DHT22;4900;49.306;8.500;2023-07-31T05:56:42;21.47;56.97
9723;DHT22;4900;49.306;8.500;2023-07-31T05:59:12;21.54;56.83
9723;DHT22;4900;49.306;8.500;2023-07-31T06:01:37;21.65;56.59
9723;DHT22;4900;49.306;8.500;2023-07-31T06:04:03;21.69;56.51
9723;DHT22;4900;49.306;8.500;2023-07-31T06:06:29;21.76;56.42
9723;DHT22;4900;49.306;8.500;2023-07-31T06:08:54;21.79;56.37
9723;DHT22;4900;49.306;8.500;2023-07-31T06:11:21;21.89;56.18
9723;DHT22;4900;49.306;8.500;2023-07-31T06:13:47;22.00;55.87
9723;DHT22;4900;49.306;8.500;2023-07-31T06:16:14;21.96;55.99
9723;DHT22;4900;49.306;8.500;2023-07-31T06:18:39;22.03;55.73
9723;DHT22;4900;49.306;8.500;2023-07-31T06:21:05;22.26;55.30
9723;DHT22;4900;49.306;8.500;2023-07-31T06:23:31;22.36;55.22
9723;DHT22;4900;49.306;8.500;2023-07-31T06:25:57;22.41;55.00
9723;DHT22;4900;49.306;8.500;2023-07-31T06:28:30;22.55;54.82
9723;DHT22;4900;49.306;8.500;2023-07-31T06:30:57;22.61;54.65
9723;DHT22;4900;49.306;8.500;2023-07-31T06:33:22;22.72;54.52
9723;DHT22;4900;49.306;8.500;2023-07-31T06:35:48;22.83;54.33
9723;DHT22;4900;49.306;8.500;2023-07-31T06:38:13;22.81;54.35
9723;DHT22;4900;49.306;8.500;2023-07-31T06:40:39;22.89;54.15
9723;DHT22;4900;49.306;8.500;2023-07-31T06:43:05;22.81;54.27
9723;DHT22;4900;49.306;8.500;2023-07-31T06:45:35;22.96;53.94
9723;DHT22;4900;49.306;8.500;2023-07-31T06:48:02;22.96;53.95
9723;DHT22;4900;49.306;8.500;2023-07-31T06:50:31;23.04;53.65
9723;DHT22;4900;49.306;8.500;2023-07-31T06:52:57;22.96;53.95
9723;DHT22;4900;49.306;8.500;2023-07-31T06:55:23;22.86;54.03
9723;DHT22;4900;49.306;8.500;2023-07-31T06:57:51;23.02;53.78
9723;DHT22;4900;49.306;8.500;2023-07-31T07:00:18;22.92;53.96
9723;DHT22;4900;49.306;8.500;2023-07-31T07:02:44;22.68;54.51
9723;DHT22;4900;49.306;8.500;2023-07-31T07:05:09;22.92;53.99
9723;DHT22;4900;49.306;8.500;2023-07-31T07:07:35;23.10;53.66
9723;DHT22;4900;49.306;8.500;2023-07-31T07:10:01;23.06;53.88
9723;DHT22;4900;49.306;8.500;2023-07-31T07:12:32;23.06;53.78
9723;DHT22;4900;49.306;8.500;2023-07-31T07:14:58;23.26;53.46
9723;DHT22;4900;49.306;8.500;2023-07-31T07:17:24;23.26;53.40
9723;DHT22;4900;49.306;8.500;2023-07-31T07:19:50;23.07;53.79
9723;DHT22;4900;49.306;8.500;2023-07-31T07:22:15;23.03;53.85
9723;DHT22;4900;49.306;8.500;2023-07-31T07:24:41;23.06;53.86
9723;DHT22;4900;49.306;8.500;2023-07-31T07:27:07;23.26;53.57
9723;DHT22;4900;49.306;8.500;2023-07-31T07:29:34;23.22;53.73
9723;DHT22;4900;49.306;8.500;2023-07-31T07:32:00;23.17;53.92
9723;DHT22;4900;49.306;8.500;2023-07-31T07:34:26;23.24;53.80
9723;DHT22;4900;49.306;8.500;2023-07-31T07:36:53;23.23;53.79
9723;DHT22;4900;49.306;8.500;2023-07-31T07:39:19;23.41;53.52
9723;DHT22;4900;49.306;8.500;2023-07-31T07:41:44;23.50;53.24
9723;DHT22;4900;49.306;8.500;2023-07-31T07:44:10;23.79;52.82
9723;DHT22;4900;49.306;8.500;2023-07-31T07:46:35;24.07;52.00
9723;DHT22;4900;49.306;8.500;2023-07-31T07:49:01;24.44;51.24
9723;DHT22;4900;49.306;8.500;2023-07-31T07:51:26;24.57;50.87
9723;DHT22;4900;49.306;8.500;2023-07-31T07:53:52;24.79;50.60
9723;DHT22;4900;49.306;8.500;2023-07-31T07:56:17;24.98;50.24
9723;DHT22;4900;49.306;8.500;2023-07-31T07:58:43;25.07;50.09
9723;DHT22;4900;49.306;8.500;2023-07-31T08:01:08;25.10;49.87
9723;DHT22;4900;49.306;8.500;2023-07-31T08:03:34;25.27;49.58
9723;DHT22;4900;49.306;8.500;2023-07-31T08:06:00;25.50;49.02
9723;DHT22;4900;49.306;8.500;2023-07-31T08:08:26;25.44;48.95
9723;DHT22;4900;49.306;8.500;2023-07-31T08:10:51;25.50;48.71
9723;DHT22;4900;49.306;8.500;2023-07-31T08:13:17;25.45;48.68
9723;DHT22;4900;49.306;8.500;2023-07-31T08:15:43;25.41;48.93
9723;DHT22;4900;49.306;8.500;2023-07-31T08:18:09;25.61;48.58
9723;DHT22;4900;49.306;8.500;2023-07-31T08:20:35;25.84;48.12
9723;DHT22;4900;49.306;8.500;2023-07-31T08:23:00;25.93;47.99
9723;DHT22;4900;49.306;8.500;2023-07-31T08:25:26;26.19;47.44
9723;DHT22;4900;49.306;8.500;2023-07-31T08:27:51;26.33;47.23
9723;DHT22;4900;49.306;8.500;2023-07-31T08:30:18;26.51;46.99
9723;DHT22;4900;49.306;8.500;2023-07-31T08:32:44;26.67;46.73
9723;DHT22;4900;49.306;8.500;2023-07-31T08:35:10;26.81;46.54
9723;DHT22;4900;49.306;8.500;2023-07-31T08:37:35;27.04;45.97
9723;DHT22;4900;49.306;8.500;2023-07-31T08:40:01;27.14;45.80
9723;DHT22;4900;49.306;8.500;2023-07-31T08:42:27;27.37;45.41
9723;DHT22;4900;49.306;8.500;2023-07-31T08:44:54;27.83;44.85
9723;DHT22;4900;49.306;8.500;2023-07-31T08:47:20;27.85;44.44
9723;DHT22;4900;49.306;8.500;2023-07-31T08:49:47;28.63;43.25
9723;DHT22;4900;49.306;8.500;2023-07-31T08:52:13;29.13;42.08
9723;DHT22;4900;49.306;8.500;2023-07-31T08:54:38;29.57;40.80
9723;DHT22;4900;49.306;8.500;2023-07-31T08:57:05;30.06;40.01
9723;DHT22;4900;49.306;8.500;2023-07-31T08:59:34;30.14;39.07
9723;DHT22;4900;49.306;8.500;2023-07-31T09:02:05;30.62;38.50
9723;DHT22;4900;49.306;8.500;2023-07-31T09:04:32;30.72;38.56
9723;DHT22;4900;49.306;8.500;2023-07-31T09:07:00;30.88;38.25
9723;DHT22;4900;49.306;8.500;2023-07-31T09:09:26;31.06;38.03
9723;DHT22;4900;49.306;8.500;2023-07-31T09:11:52;31.77;37.30
9723;DHT22;4900;49.306;8.500;2023-07-31T09:14:18;32.41;36.27
9723;DHT22;4900;49.306;8.500;2023-07-31T09:16:58;32.60;35.92
9723;DHT22;4900;49.306;8.500;2023-07-31T09:19:26;32.53;35.79
9723;DHT22;4900;49.306;8.500;2023-07-31T09:21:52;32.63;35.54
9723;DHT22;4900;49.306;8.500;2023-07-31T09:24:31;32.78;35.36
9723;DHT22;4900;49.306;8.500;2023-07-31T09:26:59;32.85;35.37
9723;DHT22;4900;49.306;8.500;2023-07-31T09:29:25;33.27;34.76
9723;DHT22;4900;49.306;8.500;2023-07-31T09:31:52;33.45;34.45
9723;DHT22;4900;49.306;8.500;2023-07-31T09:34:18;33.75;33.76
9723;DHT22;4900;49.306;8.500;2023-07-31T09:36:49;34.42;32.73
9723;DHT22;4900;49.306;8.500;2023-07-31T09:39:15;34.68;32.15
9723;DHT22;4900;49.306;8.500;2023-07-31T09:41:54;34.81;31.94
9723;DHT22;4900;49.306;8.500;2023-07-31T09:44:20;34.42;32.51
9723;DHT22;4900;49.306;8.500;2023-07-31T09:46:46;34.71;32.40
9723;DHT22;4900;49.306;8.500;2023-07-31T09:49:14;34.49;32.61
9723;DHT22;4900;49.306;8.500;2023-07-31T09:51:41;34.64;32.49
9723;DHT22;4900;49.306;8.500;2023-07-31T09:54:12;34.06;33.23
9723;DHT22;4900;49.306;8.500;2023-07-31T09:56:46;33.85;33.40
9723;DHT22;4900;49.306;8.500;2023-07-31T09:59:13;33.92;33.09
9723;DHT22;4900;49.306;8.500;2023-07-31T10:01:43;34.06;32.92
9723;DHT22;4900;49.306;8.500;2023-07-31T10:04:10;34.59;32.27
9723;DHT22;4900;49.306;8.500;2023-07-31T10:06:37;34.86;31.86
9723;DHT22;4900;49.306;8.500;2023-07-31T10:09:05;34.71;32.00
9723;DHT22;4900;49.306;8.500;2023-07-31T10:11:35;34.43;32.25
9723;DHT22;4900;49.306;8.500;2023-07-31T10:14:04;34.23;32.45
9723;DHT22;4900;49.306;8.500;2023-07-31T10:16:31;33.87;33.01
9723;DHT22;4900;49.306;8.500;2023-07-31T10:18:58;33.23;33.48
9723;DHT22;4900;49.306;8.500;2023-07-31T10:21:24;33.11;33.81
9723;DHT22;4900;49.306;8.500;2023-07-31T10:23:50;33.12;33.77
9723;DHT22;4900;49.306;8.500;2023-07-31T10:26:17;32.58;34.32
9723;DHT22;4900;49.306;8.500;2023-07-31T10:28:46;32.96;34.07
9723;DHT22;4900;49.306;8.500;2023-07-31T10:31:12;32.78;34.44
9723;DHT22;4900;49.306;8.500;2023-07-31T10:33:39;32.85;34.31
9723;DHT22;4900;49.306;8.500;2023-07-31T10:36:17;32.74;34.31
9723;DHT22;4900;49.306;8.500;2023-07-31T10:38:43;32.45;34.73
9723;DHT22;4900;49.306;8.500;2023-07-31T10:41:09;31.97;35.22
9723;DHT22;4900;49.306;8.500;2023-07-31T10:43:39;31.48;35.76
9723;DHT22;4900;49.306;8.500;2023-07-31T10:46:09;31.54;35.83
9723;DHT22;4900;49.306;8.500;2023-07-31T10:48:37;31.54;36.01
9723;DHT22;4900;49.306;8.500;2023-07-31T10:51:10;31.15;36.28
9723;DHT22;4900;49.306;8.500;2023-07-31T10:53:38;30.93;36.53
9723;DHT22;4900;49.306;8.500;2023-07-31T10:56:04;30.78;36.89
9723;DHT22;4900;49.306;8.500;2023-07-31T10:58:30;30.20;37.84
9723;DHT22;4900;49.306;8.500;2023-07-31T11:01:04;30.10;38.19
9723;DHT22;4900;49.306;8.500;2023-07-31T11:03:50;29.98;38.22
9723;DHT22;4900;49.306;8.500;2023-07-31T11:06:19;30.06;38.15
9723;DHT22;4900;49.306;8.500;2023-07-31T11:08:46;29.11;39.52
9723;DHT22;4900;49.306;8.500;2023-07-31T11:11:14;29.22;39.60
9723;DHT22;4900;49.306;8.500;2023-07-31T11:13:49;29.22;39.82
9723;DHT22;4900;49.306;8.500;2023-07-31T11:16:17;29.36;39.90
9723;DHT22;4900;49.306;8.500;2023-07-31T11:18:44;29.22;39.90
9723;DHT22;4900;49.306;8.500;2023-07-31T11:21:18;29.00;39.95
9723;DHT22;4900;49.306;8.500;2023-07-31T11:23:54;29.44;39.65
9723;DHT22;4900;49.306;8.500;2023-07-31T11:26:23;29.41;40.08
9723;DHT22;4900;49.306;8.500;2023-07-31T11:28:50;29.09;40.39
9723;DHT22;4900;49.306;8.500;2023-07-31T11:31:17;29.13;40.37
9723;DHT22;4900;49.306;8.500;2023-07-31T11:33:43;28.76;40.87
9723;DHT22;4900;49.306;8.500;2023-07-31T11:36:18;28.71;41.09
9723;DHT22;4900;49.306;8.500;2023-07-31T11:38:44;28.79;41.19
9723;DHT22;4900;49.306;8.500;2023-07-31T11:41:10;28.47;42.12
9723;DHT22;4900;49.306;8.500;2023-07-31T11:43:36;28.49;42.22
9723;DHT22;4900;49.306;8.500;2023-07-31T11:46:04;28.78;41.71
9723;DHT22;4900;49.306;8.500;2023-07-31T11:48:36;28.92;41.63
9723;DHT22;4900;49.306;8.500;2023-07-31T11:51:08;28.75;41.54
9723;DHT22;4900;49.306;8.500;2023-07-31T11:53:43;28.67;41.59
9723;DHT22;4900;49.306;8.500;2023-07-31T11:56:10;28.74;41.51
9723;DHT22;4900;49.306;8.500;2023-07-31T11:58:38;28.89;41.53
9723;DHT22;4900;49.306;8.500;2023-07-31T12:01:05;28.71;41.78
9723;DHT22;4900;49.306;8.500;2023-07-31T12:03:31;28.63;41.82
9723;DHT22;4900;49.306;8.500;2023-07-31T12:05:58;28.51;42.11
9723;DHT22;4900;49.306;8.500;2023-07-31T12:08:24;28.23;42.65
9723;DHT22;4900;49.306;8.500;2023-07-31T12:10:51;28.14;42.70
9723;DHT22;4900;49.306;8.500;2023-07-31T12:13:22;28.17;42.55
9723;DHT22;4900;49.306;8.500;2023-07-31T12:15:48;28.37;42.47
9723;DHT22;4900;49.306;8.500;2023-07-31T12:18:15;28.58;42.03
9723;DHT22;4900;49.306;8.500;2023-07-31T12:20:46;28.93;41.34
9723;DHT22;4900;49.306;8.500;2023-07-31T12:23:15;29.48;40.84
9723;DHT22;4900;49.306;8.500;2023-07-31T12:25:42;29.72;40.57
9723;DHT22;4900;49.306;8.500;2023-07-31T12:28:07;30.06;39.74
9723;DHT22;4900;49.306;8.500;2023-07-31T12:30:38;30.54;38.82
9723;DHT22;4900;49.306;8.500;2023-07-31T12:33:13;31.33;37.56
9723;DHT22;4900;49.306;8.500;2023-07-31T12:35:45;31.61;36.70
9723;DHT22;4900;49.306;8.500;2023-07-31T12:38:14;32.23;35.78
9723;DHT22;4900;49.306;8.500;2023-07-31T12:40:41;32.88;34.99
9723;DHT22;4900;49.306;8.500;2023-07-31T12:43:07;33.29;34.72
9723;DHT22;4900;49.306;8.500;2023-07-31T12:45:34;33.87;33.98
9723;DHT22;4900;49.306;8.500;2023-07-31T12:48:00;33.33;34.44
9723;DHT22;4900;49.306;8.500;2023-07-31T12:50:26;32.68;35.16
9723;DHT22;4900;49.306;8.500;2023-07-31T12:52:56;31.93;35.82
9723;DHT22;4900;49.306;8.500;2023-07-31T12:55:22;31.71;36.36
9723;DHT22;4900;49.306;8.500;2023-07-31T12:57:48;31.88;36.24
9723;DHT22;4900;49.306;8.500;2023-07-31T13:00:14;31.41;37.26
9723;DHT22;4900;49.306;8.500;2023-07-31T13:02:40;30.81;38.05
9723;DHT22;4900;49.306;8.500;2023-07-31T13:05:06;30.27;38.91
9723;DHT22;4900;49.306;8.500;2023-07-31T13:07:32;30.09;39.47
9723;DHT22;4900;49.306;8.500;2023-07-31T13:09:57;29.68;40.13
9723;DHT22;4900;49.306;8.500;2023-07-31T13:12:23;29.64;40.44
9723;DHT22;4900;49.306;8.500;2023-07-31T13:14:48;29.62;40.55
9723;DHT22;4900;49.306;8.500;2023-07-31T13:17:14;29.68;40.56
9723;DHT22;4900;49.306;8.500;2023-07-31T13:19:39;29.31;41.05
9723;DHT22;4900;49.306;8.500;2023-07-31T13:22:05;29.13;40.96
9723;DHT22;4900;49.306;8.500;2023-07-31T13:24:31;29.19;41.05
9723;DHT22;4900;49.306;8.500;2023-07-31T13:26:57;29.03;41.13
9723;DHT22;4900;49.306;8.500;2023-07-31T13:29:22;28.85;41.41
9723;DHT22;4900;49.306;8.500;2023-07-31T13:31:49;28.85;41.47
9723;DHT22;4900;49.306;8.500;2023-07-31T13:34:14;28.99;41.23
9723;DHT22;4900;49.306;8.500;2023-07-31T13:36:40;29.06;41.22
9723;DHT22;4900;49.306;8.500;2023-07-31T13:39:07;29.23;41.27
9723;DHT22;4900;49.306;8.500;2023-07-31T13:41:32;29.55;40.72
9723;DHT22;4900;49.306;8.500;2023-07-31T13:43:58;29.75;40.25
9723;DHT22;4900;49.306;8.500;2023-07-31T13:46:23;29.96;39.85
9723;DHT22;4900;49.306;8.500;2023-07-31T13:48:53;30.34;39.28
9723;DHT22;4900;49.306;8.500;2023-07-31T13:51:23;30.44;39.22
9723;DHT22;4900;49.306;8.500;2023-07-31T13:53:49;30.72;38.88
9723;DHT22;4900;49.306;8.500;2023-07-31T13:56:14;30.61;39.10
9723;DHT22;4900;49.306;8.500;2023-07-31T13:58:40;30.60;38.94
9723;DHT22;4900;49.306;8.500;2023-07-31T14:01:05;30.31;39.29
9723;DHT22;4900;49.306;8.500;2023-07-31T14:03:31;29.90;40.04
9723;DHT22;4900;49.306;8.500;2023-07-31T14:05:56;29.99;39.92
9723;DHT22;4900;49.306;8.500;2023-07-31T14:08:43;30.03;39.97
9723;DHT22;4900;49.306;8.500;2023-07-31T14:11:24;29.99;40.22
9723;DHT22;4900;49.306;8.500;2023-07-31T14:13:52;29.93;40.37
9723;DHT22;4900;49.306;8.500;2023-07-31T14:16:18;29.61;41.06
9723;DHT22;4900;49.306;8.500;2023-07-31T14:18:44;29.47;41.27
9723;DHT22;4900;49.306;8.500;2023-07-31T14:21:12;29.33;41.54
9723;DHT22;4900;49.306;8.500;2023-07-31T14:23:38;29.13;41.91
9723;DHT22;4900;49.306;8.500;2023-07-31T14:26:03;28.98;42.40
9723;DHT22;4900;49.306;8.500;2023-07-31T14:28:29;28.69;42.78
9723;DHT22;4900;49.306;8.500;2023-07-31T14:30:55;28.82;42.57
9723;DHT22;4900;49.306;8.500;2023-07-31T14:33:20;28.76;42.75
9723;DHT22;4900;49.306;8.500;2023-07-31T14:35:46;28.72;42.85
9723;DHT22;4900;49.306;8.500;2023-07-31T14:38:11;28.74;42.73
9723;DHT22;4900;49.306;8.500;2023-07-31T14:40:37;28.91;42.48
9723;DHT22;4900;49.306;8.500;2023-07-31T14:43:04;28.81;42.61
9723;DHT22;4900;49.306;8.500;2023-07-31T14:45:29;28.96;42.28
9723;DHT22;4900;49.306;8.500;2023-07-31T14:47:55;29.23;42.06
9723;DHT22;4900;49.306;8.500;2023-07-31T14:50:20;29.44;41.72
9723;DHT22;4900;49.306;8.500;2023-07-31T14:52:47;29.75;41.25
9723;DHT22;4900;49.306;8.500;2023-07-31T14:55:13;29.86;41.16
9723;DHT22;4900;49.306;8.500;2023-07-31T14:57:39;30.14;40.63
9723;DHT22;4900;49.306;8.500;2023-07-31T15:00:05;30.75;40.05
9723;DHT22;4900;49.306;8.500;2023-07-31T15:02:42;30.82;39.30
9723;DHT22;4900;49.306;8.500;2023-07-31T15:05:08;30.93;39.09
9723;DHT22;4900;49.306;8.500;2023-07-31T15:07:34;31.38;38.38
9723;DHT22;4900;49.306;8.500;2023-07-31T15:10:00;31.58;38.10
9723;DHT22;4900;49.306;8.500;2023-07-31T15:12:26;31.50;38.11
9723;DHT22;4900;49.306;8.500;2023-07-31T15:14:52;31.48;38.11
9723;DHT22;4900;49.306;8.500;2023-07-31T15:17:18;31.61;37.84
9723;DHT22;4900;49.306;8.500;2023-07-31T15:19:44;31.60;37.97
9723;DHT22;4900;49.306;8.500;2023-07-31T15:22:09;31.68;37.99
9723;DHT22;4900;49.306;8.500;2023-07-31T15:24:35;31.72;37.89
9723;DHT22;4900;49.306;8.500;2023-07-31T15:27:00;31.68;37.99
9723;DHT22;4900;49.306;8.500;2023-07-31T15:29:28;31.58;38.51
9723;DHT22;4900;49.306;8.500;2023-07-31T15:31:54;31.31;38.76
9723;DHT22;4900;49.306;8.500;2023-07-31T15:34:19;31.02;39.02
9723;DHT22;4900;49.306;8.500;2023-07-31T15:36:45;30.75;39.54
9723;DHT22;4900;49.306;8.500;2023-07-31T15:39:11;30.41;40.01
9723;DHT22;4900;49.306;8.500;2023-07-31T15:41:37;30.44;39.82
9723;DHT22;4900;49.306;8.500;2023-07-31T15:44:06;30.37;39.91
9723;DHT22;4900;49.306;8.500;2023-07-31T15:46:32;30.24;40.14
9723;DHT22;4900;49.306;8.500;2023-07-31T15:48:57;30.05;40.46
9723;DHT22;4900;49.306;8.500;2023-07-31T15:51:23;30.02;40.65
9723;DHT22;4900;49.306;8.500;2023-07-31T15:53:50;29.79;41.17
9723;DHT22;4900;49.306;8.500;2023-07-31T15:56:16;29.76;41.25
9723;DHT22;4900;49.306;8.500;2023-07-31T15:58:42;29.66;41.54
9723;DHT22;4900;49.306;8.500;2023-07-31T16:01:08;29.51;42.21
9723;DHT22;4900;49.306;8.500;2023-07-31T16:03:33;29.44;42.70